Time;durP1;ratioP1;P1;durP2;ratioP2;P2;SDS_P1;SDS_P2;PMS_P1;PMS_P2;Temp;Humidity;BMP_temperature;BMP_pressure;BME280_temperature;BME280_humidity;BME280_pressure;Samples;Min_cycle;Max_cycle;Signal;HPM_P1;HPM_P2
2022/02/07 00:03:59;;;;;;;0.88;0.80;;;3.00;99.90;;;;;;4980273;28;20451;-65
2022/02/07 00:06:25;;;;;;;0.80;0.80;;;2.90;99.90;;;;;;4987761;28;20042;-65
2022/02/07 00:08:52;;;;;;;2.78;0.80;;;2.80;99.90;;;;;;4985326;28;20031;-65
2022/02/07 00:11:18;;;;;;;22.95;1.15;;;2.80;99.90;;;;;;4989700;28;20445;-65
2022/02/07 00:13:44;;;;;;;4.32;1.10;;;2.80;99.90;;;;;;4985648;28;20047;-65
2022/02/07 00:16:10;;;;;;;3.55;0.95;;;2.80;99.90;;;;;;4984610;28;20046;-65
2022/02/07 00:18:38;;;;;;;0.70;0.70;;;2.80;99.90;;;;;;4980558;28;20035;-65
2022/02/07 00:21:03;;;;;;;0.70;0.70;;;2.80;99.90;;;;;;4982757;28;20022;-65
2022/02/07 00:23:29;;;;;;;0.60;0.60;;;2.80;99.90;;;;;;4984869;28;20023;-65
2022/02/07 00:25:55;;;;;;;1.33;0.90;;;2.80;99.90;;;;;;4985518;28;20073;-65
2022/02/07 00:28:21;;;;;;;4.40;1.52;;;2.70;99.90;;;;;;4989690;28;20434;-65
2022/02/07 00:30:47;;;;;;;2.17;0.85;;;2.90;99.90;;;;;;4980670;28;20057;-65
2022/02/07 00:33:12;;;;;;;2.15;0.88;;;2.90;99.90;;;;;;4987858;28;20290;-65
2022/02/07 00:35:38;;;;;;;2.47;1.00;;;3.00;99.90;;;;;;4988358;28;20035;-65
2022/02/07 00:38:09;;;;;;;3.30;1.67;;;2.90;99.90;;;;;;4981767;28;20556;-65
2022/02/07 00:48:16;;;;;;;0.70;0.70;;;2.80;99.90;;;;;;4982386;28;20751;-65
2022/02/07 00:50:44;;;;;;;11.45;1.20;;;2.90;99.90;;;;;;4983091;28;20049;-65
2022/02/07 00:53:13;;;;;;;1.55;1.02;;;2.80;99.90;;;;;;4984371;28;20026;-65
2022/02/07 00:55:38;;;;;;;8.07;1.23;;;2.80;99.90;;;;;;4980487;28;20042;-65
2022/02/07 00:58:04;;;;;;;1.45;0.70;;;2.80;99.90;;;;;;4985860;28;20486;-65
2022/02/07 01:00:30;;;;;;;0.80;0.80;;;2.80;99.90;;;;;;4983906;28;20018;-65
2022/02/07 01:02:56;;;;;;;0.70;0.70;;;2.70;99.90;;;;;;4980131;28;20157;-65
2022/02/07 01:05:22;;;;;;;1.30;1.05;;;2.70;99.90;;;;;;4982369;28;20101;-65
2022/02/07 01:07:50;;;;;;;2.28;1.05;;;2.70;99.90;;;;;;4997828;28;20050;-65
2022/02/07 01:10:25;;;;;;;0.70;0.70;;;2.70;99.90;;;;;;4983387;28;20446;-65
2022/02/07 01:15:37;;;;;;;4.35;1.15;;;2.70;99.90;;;;;;4989069;28;20026;-65
2022/02/07 01:55:44;;;;;;;0.82;0.82;;;3.10;99.90;;;;;;4986869;28;20449;-65
2022/02/07 01:58:11;;;;;;;0.95;0.88;;;3.10;99.90;;;;;;4990535;28;20046;-65
2022/02/07 02:00:40;;;;;;;4.30;1.25;;;3.00;99.90;;;;;;4986776;28;20023;-65
2022/02/07 02:03:06;;;;;;;0.75;0.68;;;2.90;99.90;;;;;;4988648;28;20145;-65
2022/02/07 02:05:36;;;;;;;0.80;0.80;;;2.80;99.90;;;;;;4988279;28;20101;-65
2022/02/07 02:08:06;;;;;;;;;;;2.80;99.90;;;;;;4988195;28;20221;-65
2022/02/07 02:10:32;;;;;;;4.07;1.33;;;2.70;99.90;;;;;;4987765;28;19906;-65
2022/02/07 02:13:08;;;;;;;1.80;1.02;;;2.80;99.90;;;;;;4987488;28;20038;-65
2022/02/07 02:34:39;;;;;;;0.70;0.70;;;3.00;99.90;;;;;;4983414;28;20444;-65
2022/02/07 02:47:21;;;;;;;0.80;0.80;;;3.30;99.90;;;;;;4984732;28;20545;-65
2022/02/07 02:50:01;;;;;;;3.88;1.90;;;3.30;99.90;;;;;;4988848;28;20425;-65
2022/02/07 02:52:27;;;;;;;7.55;1.40;;;3.40;99.90;;;;;;4985576;28;20045;-65
2022/02/07 02:54:52;;;;;;;2.95;1.40;;;3.40;99.90;;;;;;4988209;28;20034;-65
2022/02/07 02:57:18;;;;;;;2.25;1.00;;;3.50;99.90;;;;;;4987077;28;20026;-65
2022/02/07 02:59:43;;;;;;;4.68;1.70;;;3.50;99.90;;;;;;4986616;28;20606;-65
2022/02/07 03:02:09;;;;;;;4.32;1.20;;;3.50;99.90;;;;;;4988573;28;20057;-65
2022/02/07 03:04:35;;;;;;;4.47;2.15;;;3.50;99.90;;;;;;4985427;28;20026;-65
2022/02/07 03:07:00;;;;;;;3.25;1.65;;;3.50;99.90;;;;;;4986401;28;20046;-65
2022/02/07 03:09:26;;;;;;;3.70;1.23;;;3.50;99.90;;;;;;4983136;28;20031;-66
2022/02/07 03:11:52;;;;;;;3.10;1.20;;;3.60;99.90;;;;;;4987628;28;20478;-66
2022/02/07 03:14:34;;;;;;;2.97;1.30;;;3.60;99.90;;;;;;4988665;28;20479;-65
2022/02/07 03:16:59;;;;;;;1.00;0.70;;;3.60;99.90;;;;;;4986317;28;20072;-65
2022/02/07 03:19:25;;;;;;;3.53;1.27;;;3.70;99.90;;;;;;4979697;28;20022;-65
2022/02/07 03:21:50;;;;;;;5.72;1.45;;;3.70;99.90;;;;;;4989295;28;20050;-65
2022/02/07 03:24:16;;;;;;;3.33;1.20;;;;;;;;;;4982122;28;20042;-65
2022/02/07 03:26:44;;;;;;;2.78;1.30;;;3.60;99.90;;;;;;4985967;28;20117;-66
2022/02/07 03:29:12;;;;;;;2.38;0.90;;;3.70;99.90;;;;;;4985980;28;20053;-65
2022/02/07 03:31:38;;;;;;;2.30;2.08;;;3.70;99.90;;;;;;4982717;28;20406;-65
2022/02/07 03:34:04;;;;;;;4.07;1.45;;;3.70;99.90;;;;;;4991554;28;20034;-65
2022/02/07 03:36:31;;;;;;;4.22;1.52;;;3.70;99.90;;;;;;4984351;28;20080;-66
2022/02/07 03:38:57;;;;;;;8.05;1.17;;;3.70;99.90;;;;;;4987430;28;20069;-66
2022/02/07 03:41:23;;;;;;;5.68;1.50;;;3.70;99.90;;;;;;4983031;28;20042;-65
2022/02/07 03:43:49;;;;;;;9.13;2.00;;;3.70;99.90;;;;;;4992677;28;20026;-66
2022/02/07 03:46:15;;;;;;;9.63;1.90;;;3.70;99.90;;;;;;4985912;28;20029;-67
2022/02/07 03:48:41;;;;;;;5.93;1.45;;;3.70;99.90;;;;;;4980884;28;20027;-65
2022/02/07 03:51:06;;;;;;;1.65;0.98;;;3.70;99.90;;;;;;4986319;28;20445;-66
2022/02/07 03:53:32;;;;;;;0.75;0.75;;;3.80;99.90;;;;;;4987704;28;20470;-66
2022/02/07 03:55:58;;;;;;;3.53;0.90;;;3.80;99.90;;;;;;4985362;28;20031;-66
2022/02/07 03:58:24;;;;;;;3.15;2.05;;;3.70;99.90;;;;;;4986928;28;20030;-66
2022/02/07 04:00:52;;;;;;;0.70;0.70;;;3.70;99.90;;;;;;4987058;28;20131;-65
2022/02/07 04:03:20;;;;;;;0.70;0.70;;;3.70;99.90;;;;;;4988649;28;20466;-66
2022/02/07 04:05:50;;;;;;;0.70;0.70;;;3.70;99.90;;;;;;4983717;28;20081;-66
2022/02/07 04:08:17;;;;;;;3.05;1.02;;;3.70;99.90;;;;;;4984020;28;20030;-66
2022/02/07 04:13:33;;;;;;;0.80;0.80;;;3.80;99.90;;;;;;4991667;28;20160;-66
2022/02/07 04:16:01;;;;;;;7.22;1.02;;;3.70;99.90;;;;;;4981121;28;20027;-66
2022/02/07 04:18:29;;;;;;;1.75;1.00;;;3.70;99.90;;;;;;4989981;28;20113;-65
2022/02/07 04:20:55;;;;;;;1.35;0.90;;;3.70;99.90;;;;;;4982190;28;20133;-66
2022/02/07 04:23:21;;;;;;;2.13;0.98;;;3.60;99.90;;;;;;4988296;28;20589;-65
2022/02/07 04:25:47;;;;;;;17.65;1.98;;;3.60;99.90;;;;;;4984173;28;20030;-66
2022/02/07 04:28:13;;;;;;;1.58;1.00;;;3.50;99.90;;;;;;4991359;28;20052;-66
2022/02/07 04:30:39;;;;;;;14.63;1.65;;;3.50;99.90;;;;;;4989955;28;20019;-65
2022/02/07 04:33:05;;;;;;;3.28;1.30;;;3.50;99.90;;;;;;4983213;28;20040;-66
2022/02/07 04:35:31;;;;;;;2.50;1.05;;;3.50;99.90;;;;;;4990026;28;20470;-65
2022/02/07 04:37:56;;;;;;;1.92;1.02;;;3.50;99.90;;;;;;4984839;28;20050;-65
2022/02/07 04:40:22;;;;;;;1.10;0.65;;;3.50;99.90;;;;;;4987856;28;20607;-65
2022/02/07 04:42:48;;;;;;;7.28;1.88;;;3.50;99.90;;;;;;4985078;28;20018;-65
2022/02/07 04:55:43;;;;;;;0.60;0.60;;;3.60;99.90;;;;;;4983610;28;20566;-65
2022/02/07 05:01:24;;;;;;;0.70;0.70;;;3.60;99.90;;;;;;4984171;28;20038;-65
2022/02/07 05:03:55;;;;;;;3.65;1.00;;;3.50;99.90;;;;;;4983276;28;20030;-66
2022/02/07 05:14:35;;;;;;;11.27;1.63;;;3.40;99.90;;;;;;4985336;28;20053;-65
2022/02/07 05:17:03;;;;;;;7.63;1.95;;;3.50;99.90;;;;;;4986363;28;20033;-65
2022/02/07 05:19:28;;;;;;;3.95;1.25;;;3.50;99.90;;;;;;4981602;28;20497;-65
2022/02/07 05:21:54;;;;;;;2.35;1.17;;;3.50;99.90;;;;;;4988843;28;20030;-65
2022/02/07 05:24:19;;;;;;;6.50;1.40;;;3.40;99.90;;;;;;4980734;28;20557;-65
2022/02/07 05:26:45;;;;;;;5.78;1.17;;;3.40;99.90;;;;;;4988555;28;20018;-65
2022/02/07 05:29:11;;;;;;;10.57;2.53;;;3.40;99.90;;;;;;4987332;28;20026;-65
2022/02/07 05:31:36;;;;;;;1.77;1.00;;;3.40;99.90;;;;;;4986943;28;20030;-65
2022/02/07 05:34:02;;;;;;;1.65;1.02;;;3.40;99.90;;;;;;4997882;28;20439;-65
2022/02/07 05:36:28;;;;;;;0.90;0.82;;;3.50;99.90;;;;;;4994480;28;20023;-65
2022/02/07 05:38:58;;;;;;;5.38;1.33;;;3.50;99.90;;;;;;4991873;28;20084;-65
2022/02/07 05:41:23;;;;;;;3.00;1.17;;;3.50;99.90;;;;;;4993302;28;20074;-65
2022/02/07 05:43:51;;;;;;;6.88;1.40;;;3.50;99.90;;;;;;4994190;28;20058;-65
2022/02/07 05:46:17;;;;;;;2.40;1.23;;;3.50;99.90;;;;;;4985004;28;20065;-66
2022/02/07 05:48:43;;;;;;;3.30;1.10;;;3.50;99.90;;;;;;4981836;28;20030;-65
2022/02/07 05:51:09;;;;;;;0.60;0.60;;;3.60;99.90;;;;;;4986927;28;20026;-65
2022/02/07 05:53:36;;;;;;;1.70;0.98;;;3.50;99.90;;;;;;4993984;28;20036;-66
2022/02/07 05:56:02;;;;;;;1.30;1.02;;;3.60;99.90;;;;;;4990930;28;20390;-65
2022/02/07 05:58:28;;;;;;;8.10;2.42;;;3.60;99.90;;;;;;4984461;28;20033;-65
2022/02/07 06:00:54;;;;;;;1.05;0.98;;;3.50;99.90;;;;;;4989825;28;20057;-65
2022/02/07 06:03:20;;;;;;;1.67;0.98;;;3.60;99.90;;;;;;4995429;28;20033;-65
2022/02/07 06:05:46;;;;;;;0.95;0.77;;;3.60;99.90;;;;;;4992770;28;20418;-65
2022/02/07 06:08:12;;;;;;;0.60;0.60;;;3.60;99.90;;;;;;4995084;28;20112;-65
2022/02/07 06:10:37;;;;;;;6.15;1.48;;;3.60;99.90;;;;;;4990637;28;20023;-66
2022/02/07 06:13:05;;;;;;;0.88;0.85;;;3.60;99.90;;;;;;4993412;28;20193;-65
2022/02/07 06:15:31;;;;;;;7.22;2.17;;;3.60;99.90;;;;;;4991859;28;20473;-65
2022/02/07 06:17:59;;;;;;;6.45;1.40;;;3.60;99.90;;;;;;4995277;28;20033;-65
2022/02/07 06:20:25;;;;;;;4.85;1.63;;;3.50;99.90;;;;;;4995460;28;20026;-65
2022/02/07 06:22:51;;;;;;;6.97;2.22;;;3.50;99.90;;;;;;4988196;28;20026;-65
2022/02/07 06:25:17;;;;;;;6.55;1.88;;;3.50;99.90;;;;;;4988873;28;20037;-65
2022/02/07 06:27:43;;;;;;;7.53;2.05;;;3.40;99.90;;;;;;4988494;28;20041;-65
2022/02/07 06:30:13;;;;;;;5.30;1.52;;;3.40;99.90;;;;;;4980570;28;20027;-65
2022/02/07 06:32:39;;;;;;;2.70;1.45;;;3.30;99.90;;;;;;4991519;28;20042;-66
2022/02/07 06:35:06;;;;;;;2.83;1.08;;;3.20;99.90;;;;;;4992648;28;20094;-65
2022/02/07 06:37:31;;;;;;;1.75;1.20;;;3.30;99.90;;;;;;4992292;28;20034;-66
2022/02/07 06:39:57;;;;;;;1.70;0.88;;;3.30;99.90;;;;;;4988683;28;20026;-65
2022/02/07 06:42:23;;;;;;;8.00;1.33;;;3.30;99.90;;;;;;4993346;28;20040;-65
2022/02/07 06:44:48;;;;;;;2.80;1.40;;;3.30;99.90;;;;;;4991756;28;20121;-65
2022/02/07 06:47:14;;;;;;;3.05;1.48;;;3.30;99.90;;;;;;4990117;28;20081;-65
2022/02/07 06:49:39;;;;;;;3.33;1.13;;;3.30;99.90;;;;;;4996848;28;20076;-65
2022/02/07 06:52:05;;;;;;;3.78;1.55;;;3.40;99.90;;;;;;5000431;28;20026;-65
2022/02/07 06:54:31;;;;;;;14.43;2.20;;;3.50;99.90;;;;;;5002824;28;20478;-65
2022/02/07 06:56:57;;;;;;;1.63;1.52;;;3.50;99.90;;;;;;4990949;28;20085;-65
2022/02/07 06:59:24;;;;;;;2.08;1.27;;;3.50;99.90;;;;;;4987108;28;20029;-65
2022/02/07 07:01:50;;;;;;;9.75;1.15;;;3.50;99.90;;;;;;4989730;28;20015;-66
2022/02/07 07:04:15;;;;;;;7.68;1.85;;;3.50;99.90;;;;;;4993398;28;20368;-65
2022/02/07 07:06:41;;;;;;;7.47;2.25;;;3.60;99.90;;;;;;5003219;28;20049;-65
2022/02/07 07:09:12;;;;;;;7.55;1.77;;;3.60;99.90;;;;;;4995346;28;20026;-65
2022/02/07 07:11:38;;;;;;;1.35;0.90;;;3.60;99.90;;;;;;5003541;28;20022;-65
2022/02/07 07:14:14;;;;;;;1.85;1.15;;;3.60;99.90;;;;;;5002511;28;20021;-65
2022/02/07 07:16:50;;;;;;;7.13;1.52;;;3.60;99.90;;;;;;4998807;28;20599;-65
2022/02/07 07:19:17;;;;;;;1.75;1.65;;;3.60;99.90;;;;;;4996919;28;20014;-66
2022/02/07 07:21:43;;;;;;;2.58;1.02;;;3.60;99.90;;;;;;4992702;28;20018;-65
2022/02/07 07:24:09;;;;;;;4.07;2.22;;;3.70;99.90;;;;;;4991619;28;20019;-66
2022/02/07 07:26:36;;;;;;;0.82;0.82;;;3.70;99.90;;;;;;4987558;28;20030;-65
2022/02/07 07:29:07;;;;;;;3.40;1.60;;;3.80;99.90;;;;;;4994034;28;20018;-66
2022/02/07 07:31:39;;;;;;;12.05;2.17;;;3.70;99.90;;;;;;4990863;28;20019;-65
2022/02/07 07:34:04;;;;;;;2.15;1.00;;;3.80;99.90;;;;;;4990883;28;20491;-66
2022/02/07 07:36:30;;;;;;;0.63;0.63;;;3.80;99.90;;;;;;4987130;28;20034;-65
2022/02/07 07:38:55;;;;;;;1.13;1.02;;;3.90;99.90;;;;;;4985262;28;20026;-65
2022/02/07 07:41:21;;;;;;;3.05;1.27;;;3.90;99.90;;;;;;4983683;28;20022;-66
2022/02/07 07:43:49;;;;;;;1.60;1.20;;;4.00;99.90;;;;;;4987220;28;20061;-67
2022/02/07 07:46:18;;;;;;;5.40;1.83;;;4.00;99.90;;;;;;4979701;28;20022;-65
2022/02/07 07:48:54;;;;;;;3.13;1.60;;;4.00;99.90;;;;;;4980533;28;20027;-66
2022/02/07 07:51:47;;;;;;;20.17;1.60;;;4.00;99.90;;;;;;4983263;28;20026;-65
2022/02/07 08:02:15;;;;;;;1.27;1.17;;;4.20;99.90;;;;;;4983982;28;20072;-66
2022/02/07 08:04:43;;;;;;;2.47;1.95;;;4.20;99.90;;;;;;4982340;28;20022;-66
2022/02/07 08:07:20;;;;;;;1.48;1.13;;;4.10;99.90;;;;;;4985484;28;20045;-66
2022/02/07 08:10:05;;;;;;;6.30;1.27;;;4.20;99.90;;;;;;5000061;28;20049;-66
2022/02/07 08:12:34;;;;;;;1.98;0.95;;;4.30;99.90;;;;;;4983889;28;20026;-65
2022/02/07 08:15:00;;;;;;;0.80;0.80;;;4.40;99.90;;;;;;4987932;28;20026;-66
2022/02/07 08:17:26;;;;;;;1.90;0.90;;;4.40;99.90;;;;;;4987392;28;20032;-66
2022/02/07 08:19:53;;;;;;;2.92;0.80;;;4.50;99.90;;;;;;4986371;28;20442;-65
2022/02/07 08:22:20;;;;;;;1.27;0.80;;;4.40;99.90;;;;;;4983738;28;20022;-65
2022/02/07 08:24:46;;;;;;;16.33;2.30;;;4.40;99.90;;;;;;5002011;28;20073;-65
2022/02/07 08:27:11;;;;;;;2.63;1.73;;;4.40;99.90;;;;;;4987157;28;20022;-65
2022/02/07 08:29:37;;;;;;;11.00;1.60;;;4.40;99.90;;;;;;4988039;28;20019;-66
2022/02/07 08:32:04;;;;;;;1.45;1.15;;;4.50;99.90;;;;;;5003355;28;20023;-65
2022/02/07 08:34:29;;;;;;;0.80;0.80;;;4.50;99.90;;;;;;4981960;28;20026;-65
2022/02/07 08:36:58;;;;;;;1.55;1.05;;;4.60;99.90;;;;;;4985987;28;20032;-65
2022/02/07 08:39:24;;;;;;;2.05;1.25;;;4.60;99.90;;;;;;4984385;28;20032;-65
2022/02/07 08:41:49;;;;;;;1.45;1.17;;;4.60;99.90;;;;;;5001015;28;20022;-66
2022/02/07 08:44:15;;;;;;;1.27;1.17;;;4.60;99.90;;;;;;4989510;28;20561;-65
2022/02/07 08:46:40;;;;;;;0.95;0.90;;;4.60;99.90;;;;;;5006279;28;20061;-65
2022/02/07 08:49:06;;;;;;;4.35;1.45;;;4.60;99.90;;;;;;4987383;28;20038;-66
2022/02/07 08:51:33;;;;;;;6.00;1.67;;;4.60;99.90;;;;;;4989957;28;20025;-65
2022/02/07 08:54:05;;;;;;;6.47;1.65;;;4.50;99.90;;;;;;4981988;28;20085;-65
2022/02/07 08:56:41;;;;;;;8.55;1.88;;;4.60;99.90;;;;;;4987315;28;20022;-65
2022/02/07 08:59:07;;;;;;;2.03;1.15;;;4.60;99.90;;;;;;4986806;28;20035;-65
2022/02/07 09:04:53;;;;;;;4.50;1.42;;;4.70;99.90;;;;;;4974627;28;20035;-65
2022/02/07 09:07:31;;;;;;;0.60;0.60;;;4.80;99.90;;;;;;4984742;28;20079;-66
2022/02/07 09:09:58;;;;;;;1.33;0.82;;;4.90;99.90;;;;;;4984433;28;20034;-65
2022/02/07 09:12:24;;;;;;;2.70;1.02;;;5.00;99.90;;;;;;4985005;28;20484;-65
2022/02/07 09:14:58;;;;;;;1.70;0.75;;;5.00;99.90;;;;;;4983519;28;20057;-66
2022/02/07 09:17:23;;;;;;;1.77;0.90;;;5.10;99.90;;;;;;4984335;28;20402;-66
2022/02/07 09:19:49;;;;;;;1.00;0.85;;;5.20;99.90;;;;;;4991698;28;20039;-66
2022/02/07 09:22:15;;;;;;;1.60;1.30;;;5.20;99.90;;;;;;4989575;28;20023;-66
2022/02/07 09:24:40;;;;;;;2.15;1.15;;;5.50;99.90;;;;;;4983911;28;20026;-66
2022/02/07 09:27:06;;;;;;;2.78;2.10;;;5.60;99.90;;;;;;4980917;28;20060;-66
2022/02/07 09:29:31;;;;;;;0.80;0.80;;;5.40;99.90;;;;;;4982546;28;20749;-65
2022/02/07 09:32:00;;;;;;;2.28;1.15;;;5.30;99.90;;;;;;4984807;28;20031;-65
2022/02/07 09:34:25;;;;;;;13.15;1.15;;;5.50;99.90;;;;;;4983824;28;20486;-66
2022/02/07 09:36:53;;;;;;;1.05;0.80;;;5.70;99.90;;;;;;4989088;28;20045;-66
2022/02/07 09:39:19;;;;;;;4.65;1.13;;;5.50;99.90;;;;;;4987971;28;20030;-66
2022/02/07 09:41:49;;;;;;;0.60;0.60;;;5.50;99.90;;;;;;4981536;28;20041;-66
2022/02/07 09:44:16;;;;;;;1.20;1.02;;;5.50;99.90;;;;;;4986281;28;20030;-66
2022/02/07 09:46:45;;;;;;;5.90;1.50;;;5.50;99.90;;;;;;4986461;28;20034;-66
2022/02/07 09:49:14;;;;;;;2.85;1.42;;;5.50;99.90;;;;;;4981823;28;20097;-66
2022/02/07 09:51:43;;;;;;;8.82;1.20;;;5.50;99.90;;;;;;4985069;28;20030;-66
2022/02/07 09:54:10;;;;;;;1.95;1.58;;;5.60;99.90;;;;;;4991736;28;20018;-66
2022/02/07 09:56:36;;;;;;;7.38;1.95;;;5.80;99.90;;;;;;5004706;28;20113;-66
2022/02/07 09:59:02;;;;;;;3.72;1.02;;;5.80;99.90;;;;;;4983076;28;20475;-66
2022/02/07 10:01:32;;;;;;;3.15;0.98;;;5.60;99.90;;;;;;4985667;28;20050;-66
2022/02/07 10:07:10;;;;;;;5.47;1.25;;;5.60;99.90;;;;;;4994611;28;20038;-66
2022/02/07 10:12:06;;;;;;;0.85;0.80;;;5.80;99.90;;;;;;4990295;28;20030;-66
2022/02/07 10:14:48;;;;;;;15.40;3.10;;;5.80;99.90;;;;;;4990072;28;20042;-66
2022/02/07 10:34:37;;;;;;;6.25;1.10;;;6.90;99.90;;;;;;4989414;28;20092;-66
2022/02/07 10:39:55;;;;;;;0.68;0.68;;;6.80;99.90;;;;;;4989727;28;20042;-66
2022/02/07 10:45:04;;;;;;;6.13;1.45;;;6.90;99.90;;;;;;4988941;28;20077;-66
2022/02/07 10:47:46;;;;;;;6.03;1.52;;;6.80;99.90;;;;;;5004052;28;20030;-66
2022/02/07 10:50:16;;;;;;;6.05;2.20;;;6.70;99.90;;;;;;4998174;28;20053;-66
2022/02/07 10:53:00;;;;;;;4.43;0.80;;;6.60;99.90;;;;;;4982466;28;20031;-66
2022/02/07 10:55:27;;;;;;;2.15;0.80;;;7.00;99.90;;;;;;4984605;28;20107;-66
2022/02/07 10:57:54;;;;;;;5.15;1.60;;;7.10;99.90;;;;;;4990101;28;20101;-66
2022/02/07 11:00:25;;;;;;;5.13;1.63;;;6.90;99.90;;;;;;4993219;28;20080;-66
2022/02/07 11:03:01;;;;;;;4.75;1.85;;;7.00;99.90;;;;;;4989037;28;20034;-66
2022/02/07 11:05:38;;;;;;;15.13;2.28;;;7.00;99.90;;;;;;4989271;28;20022;-66
2022/02/07 11:08:51;;;;;;;8.40;2.00;;;7.00;99.90;;;;;;4985245;28;20046;-66
2022/02/07 11:16:19;;;;;;;5.45;1.48;;;6.90;99.90;;;;;;5000145;28;20475;-65
2022/02/07 11:21:41;;;;;;;3.88;2.05;;;6.70;99.90;;;;;;4996753;28;20084;-65
2022/02/07 11:24:33;;;;;;;0.85;0.80;;;6.80;99.90;;;;;;4996692;28;20424;-67
2022/02/07 11:27:27;;;;;;;1.77;1.25;;;6.80;99.90;;;;;;4988967;28;20085;-67
2022/02/07 11:29:53;;;;;;;2.80;1.38;;;6.80;99.90;;;;;;4988613;28;20477;-65
2022/02/07 11:32:42;;;;;;;1.45;1.23;;;6.70;99.90;;;;;;4986182;28;20027;-66
2022/02/07 11:35:14;;;;;;;3.13;0.88;;;6.70;99.90;;;;;;4986838;28;20039;-65
2022/02/07 11:37:41;;;;;;;2.05;0.85;;;6.90;99.90;;;;;;4992153;28;20058;-67
2022/02/07 11:40:32;;;;;;;6.70;1.25;;;6.80;99.90;;;;;;4990014;28;20078;-65
2022/02/07 11:43:09;;;;;;;5.15;2.22;;;6.80;99.90;;;;;;4990174;28;20422;-65
2022/02/07 11:45:50;;;;;;;17.17;2.65;;;6.80;99.90;;;;;;5000359;28;20082;-66
2022/02/07 11:48:40;;;;;;;5.60;1.60;;;6.80;99.90;;;;;;4986591;28;20065;-65
2022/02/07 11:51:12;;;;;;;2.08;1.00;;;6.70;99.90;;;;;;4983689;28;20030;-65
2022/02/07 11:53:45;;;;;;;11.88;2.22;;;6.70;99.90;;;;;;4992677;28;20044;-65
2022/02/07 11:56:29;;;;;;;4.50;1.30;;;6.70;99.90;;;;;;4984783;28;20034;-66
2022/02/07 11:58:57;;;;;;;10.63;1.45;;;6.80;99.90;;;;;;4998893;28;20049;-66
2022/02/07 12:01:56;;;;;;;10.80;2.35;;;7.10;99.90;;;;;;4986332;28;20053;-65
2022/02/07 12:04:38;;;;;;;0.90;0.85;;;7.80;99.90;;;;;;4986647;28;20181;-65
2022/02/07 12:07:11;;;;;;;5.22;1.35;;;7.70;99.90;;;;;;4995046;28;20049;-65
2022/02/07 12:09:58;;;;;;;1.88;1.08;;;7.30;99.90;;;;;;4984510;28;20092;-65
2022/02/07 12:12:51;;;;;;;5.80;1.30;;;7.00;99.90;;;;;;4982585;28;20030;-65
2022/02/07 12:15:33;;;;;;;14.07;2.70;;;7.30;99.90;;;;;;4983617;28;20037;-66
2022/02/07 12:18:16;;;;;;;7.22;1.63;;;7.80;99.90;;;;;;5001283;28;20049;-66
2022/02/07 12:20:43;;;;;;;10.02;1.60;;;7.80;99.90;;;;;;4985181;28;20039;-66
2022/02/07 12:23:11;;;;;;;4.43;1.45;;;7.50;99.90;;;;;;4996660;28;20025;-66
2022/02/07 12:25:38;;;;;;;3.05;1.23;;;7.40;99.90;;;;;;5006213;28;20089;-65
2022/02/07 12:28:08;;;;;;;14.23;2.65;;;7.30;99.90;;;;;;4986028;28;20028;-65
2022/02/07 12:30:59;;;;;;;8.32;2.20;;;7.10;99.90;;;;;;4997687;28;20049;-65
2022/02/07 12:33:26;;;;;;;1.02;0.80;;;6.80;99.90;;;;;;4990881;28;20076;-65
2022/02/07 12:35:53;;;;;;;4.30;1.40;;;6.60;99.90;;;;;;4990466;28;20035;-65
2022/02/07 12:38:21;;;;;;;1.17;1.00;;;6.30;99.90;;;;;;4992463;28;20038;-65
2022/02/07 12:40:47;;;;;;;2.17;0.85;;;6.20;99.90;;;;;;4995800;28;20030;-65
2022/02/07 12:43:13;;;;;;;3.95;1.95;;;6.10;99.90;;;;;;4989380;28;20038;-65
2022/02/07 12:45:41;;;;;;;9.73;1.77;;;6.10;99.90;;;;;;4982108;28;20042;-65
2022/02/07 12:48:13;;;;;;;5.82;1.15;;;6.10;99.90;;;;;;4987323;28;20023;-65
2022/02/07 12:50:46;;;;;;;2.85;0.95;;;6.00;99.90;;;;;;4983048;28;20044;-65
2022/02/07 12:53:26;;;;;;;2.33;1.13;;;6.00;99.90;;;;;;4986610;28;20025;-65
2022/02/07 12:55:56;;;;;;;2.38;0.85;;;5.90;99.90;;;;;;4988679;28;20687;-65
2022/02/07 12:58:48;;;;;;;2.40;1.23;;;5.90;99.90;;;;;;4986747;28;20080;-65
2022/02/07 13:01:20;;;;;;;2.10;1.15;;;5.70;99.90;;;;;;4983206;28;20387;-65
2022/02/07 13:04:07;;;;;;;4.43;1.77;;;5.70;99.90;;;;;;4983648;28;20145;-65
2022/02/07 13:06:43;;;;;;;4.25;1.70;;;5.70;99.90;;;;;;5000032;28;20061;-65
2022/02/07 13:09:21;;;;;;;3.88;1.55;;;5.60;99.90;;;;;;4984714;28;20062;-64
2022/02/07 13:11:49;;;;;;;4.63;1.88;;;5.40;99.90;;;;;;4993304;28;20133;-65
2022/02/07 13:14:18;;;;;;;9.73;1.05;;;5.30;99.90;;;;;;4984546;28;20030;-65
2022/02/07 13:16:45;;;;;;;1.67;1.05;;;5.30;99.90;;;;;;4986059;28;20030;-65
2022/02/07 13:19:17;;;;;;;13.20;1.65;;;5.20;99.90;;;;;;4993201;28;20026;-65
2022/02/07 13:21:47;;;;;;;3.10;1.10;;;5.20;99.90;;;;;;4990874;28;20022;-65
2022/02/07 13:24:16;;;;;;;0.77;0.77;;;5.10;99.90;;;;;;4988226;28;20026;-66
2022/02/07 13:26:46;;;;;;;4.18;1.35;;;5.10;99.90;;;;;;4987981;28;20495;-65
2022/02/07 13:29:28;;;;;;;2.67;1.85;;;5.10;99.90;;;;;;4984034;28;20619;-65
2022/02/07 13:32:03;;;;;;;0.65;0.65;;;5.70;99.90;;;;;;4980726;28;20465;-66
2022/02/07 13:34:31;;;;;;;6.07;1.17;;;7.00;99.90;;;;;;4988166;28;20494;-65
2022/02/07 13:37:17;;;;;;;1.65;1.00;;;7.70;99.90;;;;;;4988394;28;20072;-65
2022/02/07 13:39:51;;;;;;;1.35;0.90;;;7.30;99.90;;;;;;4977585;28;20082;-65
2022/02/07 13:42:16;;;;;;;1.52;1.35;;;7.00;99.90;;;;;;4984293;28;20065;-66
2022/02/07 13:44:42;;;;;;;1.15;0.90;;;7.20;99.90;;;;;;4990882;28;20054;-65
2022/02/07 13:47:10;;;;;;;3.03;1.33;;;6.80;99.90;;;;;;4989643;28;20031;-65
2022/02/07 13:50:01;;;;;;;1.83;1.00;;;6.40;99.90;;;;;;4988611;28;20019;-65
2022/02/07 13:52:31;;;;;;;0.60;0.60;;;6.30;99.90;;;;;;4986093;28;20026;-65
2022/02/07 13:55:20;;;;;;;13.57;0.95;;;6.40;99.90;;;;;;4993633;28;20033;-65
2022/02/07 13:58:08;;;;;;;3.88;1.48;;;6.80;99.90;;;;;;4991034;28;20034;-65
2022/02/07 14:00:40;;;;;;;1.38;0.93;;;6.90;99.90;;;;;;4988547;28;20386;-65
2022/02/07 14:03:19;;;;;;;2.25;1.15;;;7.20;99.90;;;;;;4992904;28;20029;-65
2022/02/07 14:06:01;;;;;;;4.10;1.50;;;7.40;99.90;;;;;;5007979;28;20027;-65
2022/02/07 14:08:40;;;;;;;1.40;0.80;;;7.30;99.90;;;;;;4989763;28;20046;-65
2022/02/07 14:11:08;;;;;;;1.60;1.02;;;7.40;99.90;;;;;;4987273;28;20081;-65
2022/02/07 14:13:36;;;;;;;1.65;1.20;;;7.70;99.90;;;;;;4990292;28;20026;-65
2022/02/07 14:16:04;;;;;;;2.30;1.52;;;7.70;99.90;;;;;;4988436;28;20058;-66
2022/02/07 14:18:31;;;;;;;10.10;2.90;;;7.60;99.90;;;;;;4981614;28;20105;-66
2022/02/07 14:20:57;;;;;;;3.50;1.35;;;7.40;99.90;;;;;;4987265;28;20307;-65
2022/02/07 14:23:23;;;;;;;2.05;1.17;;;7.20;99.90;;;;;;4995918;28;20554;-66
2022/02/07 14:25:57;;;;;;;4.88;2.25;;;6.90;99.90;;;;;;4985514;28;20041;-66
2022/02/07 14:28:23;;;;;;;1.75;0.93;;;6.80;99.90;;;;;;4989882;28;20026;-66
2022/02/07 14:30:49;;;;;;;4.78;1.55;;;7.10;99.90;;;;;;4985816;28;20033;-66
2022/02/07 14:33:15;;;;;;;3.40;1.60;;;7.50;99.90;;;;;;4990856;28;20022;-66
2022/02/07 14:35:41;;;;;;;2.47;1.17;;;7.50;99.90;;;;;;4992718;28;20034;-66
2022/02/07 14:38:07;;;;;;;5.10;2.05;;;7.50;99.90;;;;;;4991111;28;20038;-66
2022/02/07 14:40:36;;;;;;;5.25;1.63;;;7.40;99.90;;;;;;4986470;28;20041;-66
2022/02/07 14:43:04;;;;;;;8.10;1.55;;;7.40;99.90;;;;;;4987705;28;20026;-66
2022/02/07 14:45:55;;;;;;;7.70;2.35;;;7.50;99.90;;;;;;4984470;28;20049;-66
2022/02/07 14:48:18;;;;;;;6.13;1.92;;;7.40;99.90;;;;;;4986136;28;20049;-66
2022/02/07 14:50:43;;;;;;;4.60;2.08;;;7.30;99.90;;;;;;4985085;28;20030;-66
2022/02/07 14:53:13;;;;;;;1.48;0.82;;;7.30;99.90;;;;;;4985420;28;20033;-66
2022/02/07 14:55:39;;;;;;;9.07;2.83;;;7.00;99.90;;;;;;4986576;28;20026;-67
2022/02/07 14:58:06;;;;;;;1.77;1.15;;;7.00;99.90;;;;;;4989472;28;20026;-67
2022/02/07 15:00:31;;;;;;;6.88;2.13;;;7.00;99.90;;;;;;4984708;28;20443;-67
2022/02/07 15:02:58;;;;;;;2.33;1.30;;;7.00;99.90;;;;;;4987471;28;20073;-67
2022/02/07 15:05:25;;;;;;;9.75;2.05;;;6.90;99.90;;;;;;4990421;28;20041;-67
2022/02/07 15:07:52;;;;;;;3.50;1.30;;;6.90;99.90;;;;;;4948801;28;1136916;-67
2022/02/07 15:10:18;;;;;;;11.15;1.90;;;6.80;99.90;;;;;;4999333;28;20027;-67
2022/02/07 15:12:45;;;;;;;1.42;0.88;;;6.70;99.90;;;;;;4989102;28;20042;-67
2022/02/07 15:15:11;;;;;;;13.45;0.82;;;6.70;99.90;;;;;;4992768;28;20117;-67
2022/02/07 15:17:36;;;;;;;4.60;1.10;;;6.60;99.90;;;;;;4992422;28;20029;-67
2022/02/07 15:20:04;;;;;;;5.00;2.13;;;6.60;99.90;;;;;;4984961;28;20030;-67
2022/02/07 15:22:31;;;;;;;2.38;1.50;;;6.50;99.90;;;;;;4987557;28;20042;-67
2022/02/07 15:24:57;;;;;;;2.58;1.10;;;6.40;99.90;;;;;;4987765;28;20038;-67
2022/02/07 15:27:25;;;;;;;0.70;0.70;;;6.40;99.90;;;;;;4993764;28;20431;-67
2022/02/07 15:29:52;;;;;;;0.60;0.60;;;6.30;99.90;;;;;;4986601;28;20027;-67
2022/02/07 15:32:30;;;;;;;0.80;0.80;;;6.30;99.90;;;;;;4988494;28;20387;-67
2022/02/07 15:34:59;;;;;;;3.17;0.98;;;6.20;99.90;;;;;;4989970;28;20022;-67
2022/02/07 15:37:26;;;;;;;0.68;0.68;;;6.20;99.90;;;;;;5007200;28;20049;-67
2022/02/07 15:39:52;;;;;;;2.90;1.08;;;6.20;99.90;;;;;;4985658;28;20030;-67
2022/02/07 15:42:18;;;;;;;1.65;0.85;;;6.10;99.90;;;;;;4989064;28;20045;-68